Ringmer, United Kingdom
Current Conditions -  °F | °C
As of 7:50 PM on Saturday 25 Oct 2014 (Local Time) from EGKA Reporting Station
Scattered Clouds Scattered Clouds  
Wind Chill: 14°   Ceiling: Unl
Heat Index: 14°   Visibility: 6mi
Dew Point: 10°   Wind: 8mph
Humidity: 77%   Direction: 250°WSW
Pressure: 30.15"   Gusts: NA
Location:  50.89°N, 0.06°E
Report Text: EGKA 251850Z 25007KT 9999 SCT035 14/10 Q1021
Loading
Personal Weather Stations






























Interactive Weather Map
Tropical Storm Tracking
New forecast layout! Learn more

10-Day Weather Forecast

Advertisements
Track Severe Weather on mobile